Terminal Aerodrome Forecast
Issued by NWS Detroit/Pontiac, MI

Home | Current Version | Previous Version | Text Only | Print | Product List | Glossary On
Versions: 1 2 3 4 5 6 7 8 9 10 11 12 13 14 15 16 17 18 19 20 21 22 23 24 25 26 27
727
FTUS43 KDTX 280210 AAA
TAFDTW
TAF AMD
KDTW 280210Z 2802/2906 22004KT P6SM SKC
     FM281400 20008KT P6SM SCT200
     FM281800 19011G20KT P6SM BKN180
     FM290000 17011KT P6SM BKN150=

USA.gov is the U.S. government's official web portal to all federal, state and local government web resources and services.